createdAt,value
2022-11-12T00:01:00.646Z,102266.00
2022-11-12T00:03:29.048Z,102266.13
2022-11-12T00:05:56.744Z,102266.56
2022-11-12T00:08:24.660Z,102265.28
2022-11-12T00:10:52.483Z,102264.94
2022-11-12T00:13:21.624Z,102261.53
2022-11-12T00:15:49.307Z,102273.56
2022-11-12T00:18:16.821Z,102268.72
2022-11-12T00:20:44.924Z,102272.09
2022-11-12T00:23:12.455Z,102275.69
2022-11-12T00:25:40.139Z,102275.13
2022-11-12T00:28:09.177Z,102279.50
2022-11-12T00:30:40.398Z,102281.31
2022-11-12T00:33:08.353Z,102285.41
2022-11-12T00:35:36.111Z,102284.31
2022-11-12T00:38:03.630Z,102290.09
2022-11-12T00:40:31.461Z,102288.09
2022-11-12T00:42:59.171Z,102295.69
2022-11-12T00:45:26.743Z,102292.81
2022-11-12T00:47:57.713Z,102284.97
2022-11-12T00:50:25.761Z,102297.63
2022-11-12T00:52:53.795Z,102292.81
2022-11-12T00:55:21.872Z,102292.13
2022-11-12T00:57:49.425Z,102294.31
2022-11-12T01:00:18.133Z,102298.66
2022-11-12T01:02:50.749Z,102300.78
2022-11-12T01:05:20.763Z,102299.13
2022-11-12T01:07:54.733Z,102300.81
2022-11-12T01:10:23.454Z,102299.25
2022-11-12T01:12:51.000Z,102292.13
2022-11-12T01:15:18.612Z,102304.66
2022-11-12T01:17:46.137Z,102292.06
2022-11-12T01:20:13.673Z,102296.50
2022-11-12T01:22:42.637Z,102295.31
2022-11-12T01:25:10.628Z,102292.88
2022-11-12T01:27:38.150Z,102302.91
2022-11-12T01:30:06.675Z,102305.91
2022-11-12T01:32:36.025Z,102300.84
2022-11-12T01:35:03.653Z,102295.91
2022-11-12T01:37:31.177Z,102301.78
2022-11-12T01:40:00.644Z,102303.97
2022-11-12T01:42:30.825Z,102295.56
2022-11-12T01:44:58.488Z,102296.03
2022-11-12T01:47:28.723Z,102290.03
2022-11-12T01:49:59.143Z,102287.38
2022-11-12T01:52:30.857Z,102288.31
2022-11-12T01:55:02.670Z,102296.13
2022-11-12T01:57:34.977Z,102291.13
2022-11-12T02:00:08.079Z,102287.63
2022-11-12T02:02:36.082Z,102284.38
2022-11-12T02:05:04.691Z,102284.50
2022-11-12T02:07:33.134Z,102280.63
2022-11-12T02:10:03.563Z,102287.00
2022-11-12T02:12:48.861Z,102288.47
2022-11-12T02:15:16.541Z,102287.63
2022-11-12T02:17:44.925Z,102283.75
2022-11-12T02:20:13.264Z,102289.53
2022-11-12T02:22:42.741Z,102283.03
2022-11-12T02:25:12.141Z,102281.34
2022-11-12T02:27:40.016Z,102281.72
2022-11-12T02:30:08.307Z,102283.50
2022-11-12T02:32:35.877Z,102277.03
2022-11-12T02:35:03.412Z,102269.81
2022-11-12T02:37:30.962Z,102275.59
2022-11-12T02:40:00.183Z,102272.22
2022-11-12T02:42:27.700Z,102276.06
2022-11-12T02:44:55.238Z,102273.78
2022-11-12T02:47:22.924Z,102277.50
2022-11-12T02:49:50.410Z,102276.78
2022-11-12T02:52:17.862Z,102273.63
2022-11-12T02:54:45.909Z,102280.13
2022-11-12T02:57:14.786Z,102282.28
2022-11-12T02:59:42.246Z,102279.91
2022-11-12T03:02:09.717Z,102275.44
2022-11-12T03:04:37.427Z,102271.25
2022-11-12T03:07:05.008Z,102266.69
2022-11-12T03:09:32.512Z,102260.19
2022-11-12T03:12:00.194Z,102270.19
2022-11-12T03:14:29.061Z,102277.25
2022-11-12T03:16:56.551Z,102277.28
2022-11-12T03:19:24.106Z,102272.31
2022-11-12T03:21:51.586Z,102275.22
2022-11-12T03:24:19.167Z,102269.09
2022-11-12T03:26:46.752Z,102274.88
2022-11-12T03:29:14.258Z,102271.25
2022-11-12T03:31:43.112Z,102269.81
2022-11-12T03:34:11.634Z,102275.09
2022-11-12T03:36:39.146Z,102267.41
2022-11-12T03:39:08.002Z,102271.88
2022-11-12T03:41:35.626Z,102278.22
2022-11-12T03:44:03.357Z,102279.31
2022-11-12T03:46:31.091Z,102271.97
2022-11-12T03:49:02.323Z,102277.50
2022-11-12T03:51:29.851Z,102263.56
2022-11-12T03:53:57.478Z,102265.72
2022-11-12T03:56:24.950Z,102274.50
2022-11-12T03:58:53.712Z,102277.25
2022-11-12T04:01:21.320Z,102268.38
2022-11-12T04:03:48.887Z,102266.81
2022-11-12T04:06:35.336Z,102272.94
2022-11-12T04:09:04.834Z,102269.81
2022-11-12T04:11:32.417Z,102260.53
2022-11-12T04:14:00.486Z,102259.72
2022-11-12T04:16:45.915Z,102260.94
2022-11-12T04:19:32.186Z,102258.63
2022-11-12T04:22:03.379Z,102260.19
2022-11-12T04:24:50.265Z,102264.41
2022-11-12T04:27:19.822Z,102260.44
2022-11-12T04:30:05.931Z,102256.59
2022-11-12T04:32:35.255Z,102253.72
2022-11-12T04:35:03.128Z,102255.38
2022-11-12T04:37:44.521Z,102250.69
2022-11-12T04:40:31.226Z,102247.31
2022-11-12T04:43:16.604Z,102250.53
2022-11-12T04:45:45.226Z,102249.34
2022-11-12T04:48:12.802Z,102239.75
2022-11-12T04:50:40.393Z,102244.09
2022-11-12T04:53:09.271Z,102239.28
2022-11-12T04:55:36.908Z,102237.84
2022-11-12T04:58:04.525Z,102245.19
2022-11-12T05:00:32.772Z,102240.13
2022-11-12T05:03:00.565Z,102243.84
2022-11-12T05:05:33.480Z,102241.91
2022-11-12T05:08:01.515Z,102244.53
2022-11-12T05:10:30.680Z,102239.97
2022-11-12T05:12:58.574Z,102229.91
2022-11-12T05:15:26.348Z,102230.84
2022-11-12T05:17:53.985Z,102222.91
2022-11-12T05:20:21.612Z,102223.13
2022-11-12T05:23:05.049Z,102227.63
2022-11-12T05:25:35.331Z,102227.00
2022-11-12T05:28:02.986Z,102220.47
2022-11-12T05:30:30.583Z,102223.84
2022-11-12T05:32:58.422Z,102221.47
2022-11-12T05:35:26.045Z,102220.97
2022-11-12T05:37:53.572Z,102212.31
2022-11-12T05:40:21.102Z,102210.16
2022-11-12T05:42:50.062Z,102218.22
2022-11-12T05:45:17.581Z,102212.59
2022-11-12T05:47:45.294Z,102220.97
2022-11-12T05:50:12.806Z,102214.97
2022-11-12T05:52:40.326Z,102216.75
2022-11-12T05:55:08.512Z,102212.81
2022-11-12T05:57:36.064Z,102215.09
2022-11-12T06:00:05.721Z,102214.03
2022-11-12T06:02:34.276Z,102221.22
2022-11-12T06:05:01.887Z,102217.56
2022-11-12T06:07:30.186Z,102221.91
2022-11-12T06:09:57.709Z,102227.16
2022-11-12T06:12:25.251Z,102214.66
2022-11-12T06:14:52.822Z,102222.84
2022-11-12T06:17:22.191Z,102224.38
2022-11-12T06:19:49.780Z,102228.06
2022-11-12T06:22:17.372Z,102229.53
2022-11-12T06:24:44.891Z,102247.84
2022-11-12T06:27:12.441Z,102242.56
2022-11-12T06:29:39.986Z,102243.28
2022-11-12T06:32:07.527Z,102238.50
2022-11-12T06:34:36.415Z,102238.00
2022-11-12T06:37:03.921Z,102241.84
2022-11-12T06:39:31.591Z,102243.44
2022-11-12T06:41:59.135Z,102241.03
2022-11-12T06:44:26.691Z,102238.03
2022-11-12T06:46:54.262Z,102236.78
2022-11-12T06:49:21.808Z,102242.78
2022-11-12T06:51:52.361Z,102244.94
2022-11-12T06:54:19.923Z,102247.66
2022-11-12T06:56:47.678Z,102252.63
2022-11-12T06:59:15.234Z,102257.25
2022-11-12T07:01:42.794Z,102260.69
2022-11-12T07:04:11.120Z,102261.47
2022-11-12T07:06:38.799Z,102256.16
2022-11-12T07:09:08.124Z,102256.53
2022-11-12T07:11:36.617Z,102261.09
2022-11-12T07:14:06.466Z,102264.09
2022-11-12T07:16:34.224Z,102271.69
2022-11-12T07:19:02.071Z,102271.84
2022-11-12T07:21:29.580Z,102265.97
2022-11-12T07:23:57.334Z,102258.25
2022-11-12T07:26:27.472Z,102257.78
2022-11-12T07:28:56.481Z,102257.53
2022-11-12T07:31:25.721Z,102260.31
2022-11-12T07:33:53.294Z,102266.69
2022-11-12T07:36:22.278Z,102265.72
2022-11-12T07:38:52.994Z,102271.88
2022-11-12T07:41:22.340Z,102269.34
2022-11-12T07:43:52.405Z,102268.16
2022-11-12T07:46:21.592Z,102279.22
2022-11-12T07:48:49.464Z,102278.59
2022-11-12T07:51:19.046Z,102280.25
2022-11-12T07:53:47.466Z,102285.94
2022-11-12T07:56:17.905Z,102286.34
2022-11-12T07:58:46.168Z,102286.81
2022-11-12T08:01:30.907Z,102294.28
2022-11-12T08:03:59.098Z,102299.03
2022-11-12T08:06:27.561Z,102292.47
2022-11-12T08:08:55.586Z,102296.09
2022-11-12T08:11:23.272Z,102299.19
2022-11-12T08:13:51.069Z,102292.13
2022-11-12T08:16:19.906Z,102297.94
2022-11-12T08:18:48.236Z,102299.44
2022-11-12T08:21:17.063Z,102301.31
2022-11-12T08:23:44.619Z,102299.66
2022-11-12T08:26:13.739Z,102296.72
2022-11-12T08:28:41.546Z,102296.84
2022-11-12T08:31:10.849Z,102298.03
2022-11-12T08:33:40.584Z,102291.97
2022-11-12T08:36:10.117Z,102291.88
2022-11-12T08:38:37.942Z,102295.03
2022-11-12T08:41:08.474Z,102297.34
2022-11-12T08:43:36.555Z,102297.72
2022-11-12T08:46:05.925Z,102300.53
2022-11-12T08:48:34.321Z,102296.09
2022-11-12T08:51:03.767Z,102304.19
2022-11-12T08:53:31.568Z,102296.66
2022-11-12T08:56:00.662Z,102296.28
2022-11-12T08:58:28.883Z,102294.75
2022-11-12T09:00:58.257Z,102297.28
2022-11-12T09:03:27.147Z,102288.63
2022-11-12T09:05:54.982Z,102288.63
2022-11-12T09:08:25.781Z,102279.38
2022-11-12T09:10:53.604Z,102276.28
2022-11-12T09:13:21.573Z,102275.41
2022-11-12T09:15:49.085Z,102267.81
2022-11-12T09:18:18.674Z,102259.34
2022-11-12T09:20:47.038Z,102265.94
2022-11-12T09:23:17.592Z,102270.06
2022-11-12T09:25:46.526Z,102263.16
2022-11-12T09:28:15.682Z,102259.91
2022-11-12T09:30:46.450Z,102263.22
2022-11-12T09:33:14.549Z,102266.97
2022-11-12T09:35:42.074Z,102264.91
2022-11-12T09:38:09.753Z,102258.38
2022-11-12T09:40:48.438Z,102273.28
2022-11-12T09:43:20.153Z,102274.38
2022-11-12T09:46:06.460Z,102269.72
2022-11-12T09:48:37.839Z,102273.13
2022-11-12T09:51:07.563Z,102274.81
2022-11-12T09:53:43.000Z,102279.63
2022-11-12T09:56:14.420Z,102284.00
2022-11-12T09:58:42.050Z,102288.03
2022-11-12T10:01:14.964Z,102282.78
2022-11-12T10:03:48.743Z,102283.53
2022-11-12T10:06:19.417Z,102289.72
2022-11-12T10:08:50.608Z,102283.09
2022-11-12T10:12:04.978Z,102276.56
2022-11-12T10:14:49.077Z,102284.75
2022-11-12T10:17:24.190Z,102275.16
2022-11-12T10:20:00.719Z,102285.41
2022-11-12T10:22:38.457Z,102275.19
2022-11-12T10:25:14.520Z,102264.34
2022-11-12T10:27:44.135Z,102288.06
2022-11-12T10:30:16.316Z,102290.03
2022-11-12T10:32:44.775Z,102283.47
2022-11-12T10:35:14.179Z,102285.13
2022-11-12T10:37:44.844Z,102278.44
2022-11-12T10:40:28.965Z,102272.13
2022-11-12T10:42:59.678Z,102280.66
2022-11-12T10:45:27.470Z,102276.00
2022-11-12T10:47:55.265Z,102274.91
2022-11-12T10:50:24.094Z,102266.75
2022-11-12T10:52:56.258Z,102276.94
2022-11-12T10:55:25.757Z,102271.78
2022-11-12T10:58:16.751Z,102262.59
2022-11-12T11:00:56.400Z,102261.31
2022-11-12T11:03:25.688Z,102260.97
2022-11-12T11:05:56.078Z,102244.44
2022-11-12T11:08:36.205Z,102250.47
2022-11-12T11:11:22.615Z,102246.03
2022-11-12T11:13:55.541Z,102245.91
2022-11-12T11:16:25.256Z,102243.22
2022-11-12T11:18:55.006Z,102240.88
2022-11-12T11:21:36.681Z,102235.81
2022-11-12T11:24:18.214Z,102231.59
2022-11-12T11:26:55.722Z,102228.19
2022-11-12T11:29:36.988Z,102219.63
2022-11-12T11:32:12.422Z,102214.94
2022-11-12T11:34:45.305Z,102220.06
2022-11-12T11:37:23.609Z,102214.81
2022-11-12T11:39:59.751Z,102228.28
2022-11-12T11:42:49.451Z,102203.97
2022-11-12T11:45:22.120Z,102204.81
2022-11-12T11:48:01.640Z,102211.84
2022-11-12T11:50:30.645Z,102214.84
2022-11-12T11:53:10.785Z,102188.47
2022-11-12T11:55:45.924Z,102205.41
2022-11-12T11:58:24.166Z,102208.25
2022-11-12T12:00:58.871Z,102211.56
2022-11-12T12:03:33.063Z,102220.63
2022-11-12T12:06:10.761Z,102210.22
2022-11-12T12:08:53.650Z,102208.72
2022-11-12T12:11:24.545Z,102192.03
2022-11-12T12:14:03.137Z,102189.19
2022-11-12T12:16:39.854Z,102201.50
2022-11-12T12:19:13.756Z,102188.88
2022-11-12T12:21:45.325Z,102194.97
2022-11-12T12:24:17.625Z,102189.31
2022-11-12T12:26:46.990Z,102192.22
2022-11-12T12:29:17.372Z,102178.44
2022-11-12T12:31:50.874Z,102193.63
2022-11-12T12:34:22.353Z,102162.75
2022-11-12T12:36:52.194Z,102173.97
2022-11-12T12:39:21.065Z,102167.34
2022-11-12T12:41:54.560Z,102170.50
2022-11-12T12:44:22.152Z,102164.25
2022-11-12T12:46:54.939Z,102186.16
2022-11-12T12:49:26.990Z,102165.91
2022-11-12T12:51:55.895Z,102192.44
2022-11-12T12:54:57.455Z,102194.72
2022-11-12T12:57:33.285Z,102195.50
2022-11-12T13:00:25.825Z,102183.63
2022-11-12T13:02:54.905Z,102171.19
2022-11-12T13:05:31.585Z,102162.22
2022-11-12T13:08:01.725Z,102162.59
2022-11-12T13:10:48.174Z,102143.47
2022-11-12T13:13:32.158Z,102162.81
2022-11-12T13:16:01.523Z,102167.22
2022-11-12T13:18:59.090Z,102166.94
2022-11-12T13:21:26.926Z,102182.75
2022-11-12T13:24:11.666Z,102156.50
2022-11-12T13:26:53.831Z,102150.03
2022-11-12T13:29:26.109Z,102142.84
2022-11-12T13:32:27.222Z,102153.03
2022-11-12T13:35:14.823Z,102159.25
2022-11-12T13:37:44.064Z,102154.13
2022-11-12T13:40:14.610Z,102152.91
2022-11-12T13:42:51.464Z,102135.47
2022-11-12T13:45:20.843Z,102148.69
2022-11-12T13:47:49.197Z,102149.84
2022-11-12T13:50:20.786Z,102146.69
2022-11-12T13:52:48.913Z,102178.09
2022-11-12T13:55:17.942Z,102146.91
2022-11-12T13:57:50.209Z,102150.84
2022-11-12T14:00:31.776Z,102167.88
2022-11-12T14:03:01.186Z,102152.97
2022-11-12T14:05:31.771Z,102152.53
2022-11-12T14:08:12.297Z,102151.06
2022-11-12T14:10:46.583Z,102134.47
2022-11-12T14:13:35.527Z,102133.63
2022-11-12T14:16:20.173Z,102149.00
2022-11-12T14:19:02.825Z,102160.22
2022-11-12T14:21:31.721Z,102152.50
2022-11-12T14:23:59.218Z,102146.66
2022-11-12T14:26:37.760Z,102130.91
2022-11-12T14:29:05.337Z,102130.31
2022-11-12T14:31:33.331Z,102131.94
2022-11-12T14:34:22.276Z,102144.97
2022-11-12T14:36:55.737Z,102146.28
2022-11-12T14:39:24.069Z,102132.06
2022-11-12T14:41:51.798Z,102135.72
2022-11-12T14:44:21.721Z,102125.78
2022-11-12T14:46:51.278Z,102127.63
2022-11-12T14:49:24.021Z,102125.09
2022-11-12T14:51:55.365Z,102132.84
2022-11-12T14:54:28.622Z,102146.56
2022-11-12T14:56:56.473Z,102126.34
2022-11-12T14:59:24.090Z,102145.06
2022-11-12T15:02:31.599Z,102133.94
2022-11-12T15:05:00.616Z,102136.13
2022-11-12T15:07:32.146Z,102111.19
2022-11-12T15:10:00.292Z,102130.59
2022-11-12T15:12:29.686Z,102122.53
2022-11-12T15:15:08.609Z,102112.91
2022-11-12T15:17:36.943Z,102121.34
2022-11-12T15:20:05.983Z,102120.03
2022-11-12T15:22:35.238Z,102120.72
2022-11-12T15:25:17.921Z,102116.66
2022-11-12T15:27:45.481Z,102098.69
2022-11-12T15:30:18.806Z,102120.13
2022-11-12T15:32:47.835Z,102116.72
2022-11-12T15:35:35.666Z,102107.13
2022-11-12T15:38:07.883Z,102112.31
2022-11-12T15:40:43.905Z,102102.50
2022-11-12T15:43:14.589Z,102104.59
2022-11-12T15:45:42.135Z,102109.63
2022-11-12T15:48:11.938Z,102104.28
2022-11-12T15:50:39.619Z,102102.16
2022-11-12T15:53:08.553Z,102101.78
2022-11-12T15:55:36.642Z,102106.75
2022-11-12T15:58:04.727Z,102093.75
2022-11-12T16:00:33.648Z,102093.38
2022-11-12T16:03:07.471Z,102095.44
2022-11-12T16:05:35.279Z,102098.56
2022-11-12T16:08:02.812Z,102099.50
2022-11-12T16:10:31.692Z,102082.41
2022-11-12T16:13:00.802Z,102097.84
2022-11-12T16:15:28.611Z,102096.66
2022-11-12T16:17:56.852Z,102080.16
2022-11-12T16:20:26.137Z,102088.38
2022-11-12T16:22:54.081Z,102074.56
2022-11-12T16:25:21.682Z,102080.00
2022-11-12T16:27:55.698Z,102085.75
2022-11-12T16:30:25.649Z,102088.78
2022-11-12T16:32:53.456Z,102083.31
2022-11-12T16:35:21.402Z,102079.97
2022-11-12T16:37:49.111Z,102083.50
2022-11-12T16:40:19.008Z,102090.53
2022-11-12T16:42:46.600Z,102087.41
2022-11-12T16:45:16.232Z,102086.72
2022-11-12T16:47:45.502Z,102079.25
2022-11-12T16:50:14.406Z,102073.72
2022-11-12T16:52:42.171Z,102075.44
2022-11-12T16:55:10.442Z,102079.50
2022-11-12T16:57:37.984Z,102073.16
2022-11-12T17:00:06.767Z,102083.91
2022-11-12T17:02:40.622Z,102089.06
2022-11-12T17:05:14.792Z,102079.13
2022-11-12T17:07:42.312Z,102089.16
2022-11-12T17:10:10.503Z,102082.38
2022-11-12T17:12:38.242Z,102084.75
2022-11-12T17:15:07.140Z,102075.53
2022-11-12T17:17:36.117Z,102083.34
2022-11-12T17:20:03.823Z,102072.75
2022-11-12T17:22:31.415Z,102068.16
2022-11-12T17:24:59.137Z,102066.38
2022-11-12T17:27:27.323Z,102067.06
2022-11-12T17:29:54.857Z,102056.56
2022-11-12T17:32:23.644Z,102071.75
2022-11-12T17:34:52.599Z,102069.59
2022-11-12T17:37:20.462Z,102063.69
2022-11-12T17:39:48.202Z,102061.78
2022-11-12T17:42:15.735Z,102052.69
2022-11-12T17:44:45.562Z,102055.03
2022-11-12T17:47:13.154Z,102053.31
2022-11-12T17:49:40.964Z,102041.38
2022-11-12T17:52:09.898Z,102051.09
2022-11-12T17:54:37.850Z,102047.19
2022-11-12T17:57:05.428Z,102058.69
2022-11-12T17:59:32.954Z,102050.03
2022-11-12T18:02:00.807Z,102049.75
2022-11-12T18:04:30.988Z,102053.84
2022-11-12T18:06:59.186Z,102050.13
2022-11-12T18:09:28.156Z,102044.41
2022-11-12T18:11:56.496Z,102053.06
2022-11-12T18:14:26.058Z,102058.34
2022-11-12T18:16:54.216Z,102049.19
2022-11-12T18:19:21.900Z,102047.22
2022-11-12T18:21:49.439Z,102056.25
2022-11-12T18:24:17.701Z,102041.78
2022-11-12T18:26:46.626Z,102042.91
2022-11-12T18:29:14.154Z,102034.56
2022-11-12T18:31:41.767Z,102039.09
2022-11-12T18:34:11.751Z,102035.13
2022-11-12T18:36:39.430Z,102041.47
2022-11-12T18:39:07.021Z,102040.91
2022-11-12T18:41:34.548Z,102039.47
2022-11-12T18:44:03.451Z,102034.22
2022-11-12T18:46:31.051Z,102031.59
2022-11-12T18:48:58.624Z,102037.66
2022-11-12T18:51:26.167Z,102041.31
2022-11-12T18:53:53.934Z,102041.25
2022-11-12T18:56:22.863Z,102041.97
2022-11-12T18:58:50.627Z,102040.97
2022-11-12T19:01:21.415Z,102059.66
2022-11-12T19:03:49.480Z,102052.31
2022-11-12T19:06:17.057Z,102055.00
2022-11-12T19:08:44.618Z,102054.00
2022-11-12T19:11:14.623Z,102051.22
2022-11-12T19:13:43.124Z,102054.50
2022-11-12T19:16:12.512Z,102051.44
2022-11-12T19:18:43.234Z,102049.88
2022-11-12T19:21:12.286Z,102042.53
2022-11-12T19:23:41.179Z,102046.97
2022-11-12T19:26:09.900Z,102046.97
2022-11-12T19:28:37.453Z,102050.88
2022-11-12T19:31:05.653Z,102043.81
2022-11-12T19:33:33.918Z,102036.69
2022-11-12T19:36:06.805Z,102035.69
2022-11-12T19:38:34.646Z,102031.13
2022-11-12T19:41:04.932Z,102024.53
2022-11-12T19:43:32.482Z,102031.09
2022-11-12T19:46:01.020Z,102015.13
2022-11-12T19:48:28.830Z,102022.19
2022-11-12T19:50:56.738Z,102021.72
2022-11-12T19:53:25.939Z,102018.22
2022-11-12T19:55:53.509Z,102014.28
2022-11-12T19:58:21.287Z,102014.38
2022-11-12T20:00:49.147Z,102015.94
2022-11-12T20:03:18.013Z,102010.94
2022-11-12T20:05:45.714Z,102005.38
2022-11-12T20:08:13.352Z,102011.75
2022-11-12T20:10:42.375Z,102007.56
2022-11-12T20:13:10.146Z,102009.72
2022-11-12T20:15:38.744Z,102006.59
2022-11-12T20:18:06.529Z,102009.19
2022-11-12T20:20:34.566Z,102006.50
2022-11-12T20:23:02.139Z,102008.72
2022-11-12T20:25:29.670Z,102000.28
2022-11-12T20:27:58.958Z,102001.19
2022-11-12T20:30:26.701Z,101997.00
2022-11-12T20:32:54.256Z,102000.13
2022-11-12T20:35:22.465Z,102003.44
2022-11-12T20:37:50.460Z,102001.47
2022-11-12T20:40:18.408Z,102014.38
2022-11-12T20:42:46.645Z,102013.31
2022-11-12T20:45:15.900Z,102007.03
2022-11-12T20:47:43.489Z,102000.13
2022-11-12T20:50:11.040Z,102001.19
2022-11-12T20:52:38.652Z,102004.38
2022-11-12T20:55:06.813Z,102005.50
2022-11-12T20:57:34.313Z,102001.72
2022-11-12T21:00:01.977Z,101989.94
2022-11-12T21:02:31.109Z,101996.09
2022-11-12T21:04:58.654Z,101992.22
2022-11-12T21:07:26.347Z,101989.94
2022-11-12T21:09:53.998Z,101981.19
2022-11-12T21:12:21.497Z,101974.81
2022-11-12T21:14:50.702Z,101983.22
2022-11-12T21:17:19.772Z,101974.41
2022-11-12T21:19:48.828Z,101980.41
2022-11-12T21:22:17.116Z,101980.88
2022-11-12T21:24:44.724Z,101970.25
2022-11-12T21:27:12.427Z,101974.41
2022-11-12T21:29:40.073Z,101976.06
2022-11-12T21:32:07.598Z,101983.63
2022-11-12T21:34:35.196Z,101973.28
2022-11-12T21:37:04.239Z,101981.78
2022-11-12T21:39:31.713Z,101978.84
2022-11-12T21:41:59.233Z,101977.78
2022-11-12T21:44:26.898Z,101976.50
2022-11-12T21:46:54.519Z,101977.91
2022-11-12T21:49:22.128Z,101978.78
2022-11-12T21:51:49.647Z,101978.78
2022-11-12T21:54:18.733Z,101974.56
2022-11-12T21:56:46.271Z,101975.78
2022-11-12T21:59:13.777Z,101985.13
2022-11-12T22:01:43.496Z,101983.59
2022-11-12T22:04:17.007Z,101972.44
2022-11-12T22:06:45.919Z,101967.28
2022-11-12T22:09:13.470Z,101972.91
2022-11-12T22:11:42.313Z,101970.75
2022-11-12T22:14:10.224Z,101965.63
2022-11-12T22:16:38.635Z,101972.50
2022-11-12T22:19:06.164Z,101969.16
2022-11-12T22:21:39.752Z,101963.56
2022-11-12T22:24:07.857Z,101960.91
2022-11-12T22:26:36.090Z,101958.00
2022-11-12T22:29:05.136Z,101954.34
2022-11-12T22:31:33.742Z,101959.59
2022-11-12T22:34:02.834Z,101963.00
2022-11-12T22:36:31.827Z,101955.25
2022-11-12T22:38:59.833Z,101948.88
2022-11-12T22:41:29.378Z,101952.78
2022-11-12T22:44:00.362Z,101949.28
2022-11-12T22:46:30.578Z,101951.72
2022-11-12T22:48:59.075Z,101947.69
2022-11-12T22:51:29.983Z,101945.38
2022-11-12T22:54:00.405Z,101946.16
2022-11-12T22:56:29.099Z,101940.22
2022-11-12T22:58:58.883Z,101943.91
2022-11-12T23:01:30.613Z,101930.53
2022-11-12T23:03:59.956Z,101945.81
2022-11-12T23:06:27.909Z,101936.59
2022-11-12T23:08:57.326Z,101928.75
2022-11-12T23:11:25.986Z,101927.63
2022-11-12T23:13:54.244Z,101929.81
2022-11-12T23:16:23.751Z,101933.69
2022-11-12T23:18:54.760Z,101932.41
2022-11-12T23:21:24.387Z,101927.63
2022-11-12T23:23:52.469Z,101931.19
2022-11-12T23:26:21.847Z,101917.00
2022-11-12T23:28:49.517Z,101921.91
2022-11-12T23:31:18.643Z,101921.22
2022-11-12T23:33:46.557Z,101912.97
2022-11-12T23:36:15.642Z,101919.88
2022-11-12T23:38:43.715Z,101916.53
2022-11-12T23:41:12.037Z,101918.19
2022-11-12T23:43:39.545Z,101904.84
2022-11-12T23:46:07.410Z,101921.22
2022-11-12T23:48:34.944Z,101918.91
2022-11-12T23:51:04.477Z,101916.59
2022-11-12T23:53:34.023Z,101923.81
2022-11-12T23:56:02.171Z,101918.97
2022-11-12T23:58:30.573Z,101913.94
